Flight Track Log - Related Links

Times and Time Zones

All times are in EDT time to prevent confusion due to time zone crossing. See the UAL4695 flight status page for this flight to view local times or setup timezone preferences in your user account.

Time Position Orientation Groundspeed Altitude Reporting Facility
EDT Latitude Longitude Course Direction KTS MPH feet Rate Location/Type
Tue 05:29:21 PM 37.4833 -77.3000 38° Northeast 160 184 1,400  Level Potomac TRACON
Tue 05:30:10 PM 37.4589 -77.2531 123° Southeast 196 226 2,700 1,982 Climbing Washington Center
Tue 05:31:10 PM 37.4242 -77.1950 127° Southeast 249 287 5,000 2,500 Climbing Washington Center
Tue 05:32:00 PM 37.7379 -77.0621 38° Northeast  Level FlightAware Approximate
Tue 05:32:10 PM 37.4189 -77.1136 95° East 240 276 7,700  Level Washington Center
Tue 05:33:00 PM 37.7992 -77.0008 38° Northeast  Level FlightAware Approximate
Tue 05:33:10 PM 37.4783 -77.0339 47° Northeast 263 303 9,200  Level Washington Center
Tue 05:34:00 PM 37.8606 -76.9395 38° Northeast  Level FlightAware Approximate
Tue 05:34:10 PM 37.5378 -76.9536 47° Northeast 278 320 11,000  Level Washington Center
Tue 05:35:10 PM 37.6056 -76.8631 47° Northeast 315 362 12,700 1,750 Climbing Washington Center
Tue 05:36:10 PM 37.6753 -76.7672 47° Northeast 351 404 14,500 1,800 Climbing Washington Center
Tue 05:37:10 PM 37.7594 -76.6897 36° Northeast 365 420 16,300 1,250 Climbing Washington Center
Tue 05:38:10 PM 37.8639 -76.6781 North 355 409 17,000 350 Climbing Washington Center
Tue 05:39:10 PM 37.9764 -76.6719 North 373 429 17,000  Level Washington Center
Tue 05:40:10 PM 38.0850 -76.6575 North 378 435 17,000  Level Washington Center
Tue 05:41:10 PM 38.1631 -76.5714 41° Northeast 393 452 17,000  Level Washington Center
Tue 05:42:10 PM 38.2408 -76.4642 47° Northeast 393 452 17,000 50 Level Washington Center
Tue 05:43:10 PM 38.3394 -76.3911 30° Northeast 400 460 17,100 50 Climbing Washington Center
Tue 05:44:10 PM 38.4500 -76.3711 North 389 448 17,100  Level Washington Center
Tue 05:45:10 PM 38.5586 -76.3511 North 389 448 17,100  Level Washington Center
Tue 05:46:10 PM 38.6442 -76.3358 North 351 404 17,100  Level Washington Center
Tue 05:47:10 PM 38.7339 -76.3208 North 327 376 17,100  Level Washington Center
Tue 05:48:10 PM 38.8175 -76.2792 21° North 322 371 17,100 -50 Level Washington Center
Tue 05:49:10 PM 38.8992 -76.2211 29° Northeast 315 362 17,000 -50 Descending Washington Center
Tue 05:50:10 PM 38.9806 -76.2031 10° North 315 362 17,000  Level Washington Center
Tue 05:51:10 PM 39.0533 -76.2544 331° Northwest 273 314 17,000  Level Washington Center
Tue 05:52:10 PM 39.1389 -76.1964 28° Northeast 294 338 17,000 -50 Level Washington Center
Tue 05:53:10 PM 39.2289 -76.1219 33° Northeast 337 388 16,900 -50 Descending Washington Center
Tue 05:54:10 PM 39.3106 -76.0422 37° Northeast 356 410 16,900 50 Level Washington Center
Tue 05:55:10 PM 39.3900 -75.9514 41° Northeast 367 422 17,000 50 Climbing Washington Center
Tue 05:56:10 PM 39.4675 -75.8631 41° Northeast 367 422 17,000  Level Washington Center
Tue 05:57:10 PM 39.5447 -75.7719 42° Northeast 367 422 17,000  Level Washington Center
Tue 05:58:10 PM 39.6219 -75.6778 43° Northeast 372 428 17,000  Level Washington Center
Tue 05:59:10 PM 39.6989 -75.5861 42° Northeast 372 428 17,000 -50 Level Washington Center
Tue 06:00:10 PM 39.7781 -75.4917 43° Northeast 372 428 16,900 -100 Descending Washington Center
Tue 06:01:10 PM 39.8614 -75.3914 43° Northeast 367 422 16,800 -1,000 Descending Washington Center
Tue 06:02:10 PM 39.9381 -75.2967 43° Northeast 367 422 14,900 -1,900 Descending Washington Center
Tue 06:03:10 PM 40.0131 -75.2069 42° Northeast 367 422 13,000 -1,491 Descending Washington Center
Tue 06:04:51 PM 40.1333 -75.0500 45° Northeast 355 409 10,900 -1,379 Descending New York TRACON
Tue 06:05:51 PM 40.2000 -74.9667 44° Northeast 316 364 9,300 -1,381 Descending New York TRACON
Tue 06:06:57 PM 40.2667 -74.8833 44° Northeast 300 345 8,000 -800 Descending New York TRACON
Tue 06:07:51 PM 40.3167 -74.8167 45° Northeast 303 349 7,700 -526 Descending New York TRACON
Tue 06:08:51 PM 40.3833 -74.7333 44° Northeast 292 336 7,000 -600 Descending New York TRACON
Tue 06:09:51 PM 40.4333 -74.6667 45° Northeast 286 329 6,500 -526 Descending New York TRACON
Tue 06:10:45 PM 40.5000 -74.6500 11° North 274 315 6,000 -250 Descending New York TRACON
Tue 06:11:51 PM 40.5833 -74.6500 360° North 270 311 6,000  Level New York TRACON
Tue 06:12:51 PM 40.6667 -74.6500 360° North 283 326 6,000  Level New York TRACON
Tue 06:13:51 PM 40.7333 -74.6000 30° Northeast 290 334 6,000  Level New York TRACON
Tue 06:14:51 PM 40.8000 -74.5333 37° Northeast 300 345 6,000 -450 Level New York TRACON
Tue 06:15:51 PM 40.8667 -74.4667 37° Northeast 299 344 5,100 -500 Descending New York TRACON
Tue 06:16:51 PM 40.9167 -74.3833 52° Northeast 294 338 5,000 -48 Descending New York TRACON
Tue 06:17:57 PM 40.9500 -74.3000 62° Northeast 259 298 5,000 -250 Level New York TRACON
Tue 06:18:51 PM 40.9833 -74.2333 56° Northeast 226 260 4,500 -526 Descending New York TRACON
Tue 06:19:51 PM 40.9667 -74.1500 105° East 210 242 4,000 -250 Descending New York TRACON
Tue 06:20:51 PM 40.9500 -74.0833 108° East 200 230 4,000 -350 Level New York TRACON
Tue 06:21:51 PM 40.9167 -74.0333 131° Southeast 189 217 3,300 -500 Descending New York TRACON
Tue 06:22:51 PM 40.8667 -74.0500 194° South 152 175 3,000 -150 Descending New York TRACON
Tue 06:23:51 PM 40.8333 -74.0833 217° Southwest 158 182 3,000 -450 Level New York TRACON
Tue 06:24:51 PM 40.7833 -74.1000 194° South 152 175 2,100 -900 Descending New York TRACON

Login

Don't have an account? Register now (free) for customized features, flight alerts, and more!